SCO15CD EGPH-EGAA
Flight info
| Callsign | SCO15CD |
|---|---|
| Flight time | 0h 27m |
| Altitude | 18000 |
| Route | GOSAM P600 BLACA DCT BELZU |
| Aircraft | B738/M-SDE2E3FGHIRWXY/LB1 |
Departure
| Time | 2026-04-26 22:52 |
|---|---|
| Airport | Edinburgh Airport (EGPH) |
Arrival
| Time | 2026-04-26 23:19 |
|---|---|
| Airport | Belfast International Airport (EGAA) |
| Time | Latitude | Longitude | Altitude | Speed | Heading |
|---|---|---|---|---|---|
| 2026-04-26 22:29 | 55.94702 | -3.36608 | 115 ft | 0 kts | 89° |
| 2026-04-26 22:41 | 55.94702 | -3.36623 | 115 ft | 2 kts | 89° |
| 2026-04-26 22:41 | 55.94702 | -3.36652 | 114 ft | 2 kts | 89° |
| 2026-04-26 22:42 | 55.94700 | -3.36681 | 111 ft | 2 kts | 67° |
| 2026-04-26 22:42 | 55.94692 | -3.36701 | 111 ft | 1 kts | 6° |
| 2026-04-26 22:42 | 55.94684 | -3.36702 | 111 ft | 0 kts | 353° |
| 2026-04-26 22:43 | 55.94685 | -3.36702 | 111 ft | 1 kts | 353° |
| 2026-04-26 22:43 | 55.94725 | -3.36723 | 112 ft | 10 kts | 341° |
| 2026-04-26 22:43 | 55.94793 | -3.36776 | 115 ft | 11 kts | 353° |
| 2026-04-26 22:44 | 55.94867 | -3.36781 | 115 ft | 11 kts | 353° |
| 2026-04-26 22:44 | 55.94929 | -3.36834 | 112 ft | 9 kts | 355° |
| 2026-04-26 22:44 | 55.94971 | -3.36765 | 114 ft | 9 kts | 59° |
| 2026-04-26 22:44 | 55.95001 | -3.36674 | 113 ft | 8 kts | 60° |
| 2026-04-26 22:45 | 55.95069 | -3.36475 | 113 ft | 28 kts | 59° |
| 2026-04-26 22:45 | 55.95159 | -3.36209 | 113 ft | 24 kts | 58° |
| 2026-04-26 22:45 | 55.95242 | -3.35967 | 113 ft | 22 kts | 59° |
| 2026-04-26 22:45 | 55.95319 | -3.35734 | 115 ft | 21 kts | 59° |
| 2026-04-26 22:46 | 55.95396 | -3.35510 | 114 ft | 19 kts | 59° |
| 2026-04-26 22:46 | 55.95441 | -3.35404 | 114 ft | 9 kts | 21° |
| 2026-04-26 22:46 | 55.95491 | -3.35431 | 115 ft | 1 kts | 329° |
| 2026-04-26 22:47 | 55.95546 | -3.35489 | 113 ft | 16 kts | 329° |
| 2026-04-26 22:47 | 55.95558 | -3.35596 | 110 ft | 10 kts | 243° |
| 2026-04-26 22:47 | 55.95536 | -3.35666 | 112 ft | 0 kts | 238° |
| 2026-04-26 22:51 | 55.95525 | -3.35696 | 111 ft | 18 kts | 237° |
| 2026-04-26 22:51 | 55.95180 | -3.36713 | 113 ft | 122 kts | 239° |
| 2026-04-26 22:52 | 55.94647 | -3.38301 | 312 ft | 166 kts | 239° |
| 2026-04-26 22:52 | 55.94017 | -3.40104 | 1098 ft | 176 kts | 237° |
| 2026-04-26 22:52 | 55.93385 | -3.41924 | 2137 ft | 172 kts | 237° |
| 2026-04-26 22:52 | 55.92723 | -3.43844 | 2660 ft | 198 kts | 237° |
| 2026-04-26 22:53 | 55.92224 | -3.45287 | 2850 ft | 214 kts | 238° |
| 2026-04-26 22:53 | 55.91154 | -3.48386 | 3418 ft | 232 kts | 238° |
| 2026-04-26 22:53 | 55.90397 | -3.51000 | 3847 ft | 247 kts | 253° |
| 2026-04-26 22:53 | 55.90047 | -3.54030 | 4463 ft | 258 kts | 261° |
| 2026-04-26 22:54 | 55.89771 | -3.57178 | 5443 ft | 258 kts | 261° |
| 2026-04-26 22:54 | 55.89483 | -3.60334 | 6072 ft | 258 kts | 260° |
| 2026-04-26 22:54 | 55.89176 | -3.63543 | 6863 ft | 265 kts | 260° |
| 2026-04-26 22:54 | 55.88858 | -3.66799 | 7719 ft | 268 kts | 259° |
| 2026-04-26 22:55 | 55.88532 | -3.70084 | 8591 ft | 271 kts | 259° |
| 2026-04-26 22:55 | 55.88198 | -3.73405 | 9449 ft | 274 kts | 259° |
| 2026-04-26 22:55 | 55.87857 | -3.76767 | 10320 ft | 277 kts | 259° |
| 2026-04-26 22:55 | 55.87629 | -3.79026 | 10709 ft | 285 kts | 259° |
| 2026-04-26 22:56 | 55.87265 | -3.82662 | 10903 ft | 311 kts | 259° |
| 2026-04-26 22:56 | 55.86877 | -3.86565 | 11341 ft | 326 kts | 259° |
| 2026-04-26 22:56 | 55.86477 | -3.90582 | 12072 ft | 332 kts | 259° |
| 2026-04-26 22:56 | 55.86072 | -3.94641 | 12894 ft | 335 kts | 259° |
| 2026-04-26 22:57 | 55.85662 | -3.98747 | 13720 ft | 339 kts | 258° |
| 2026-04-26 22:57 | 55.85244 | -4.02896 | 14503 ft | 343 kts | 258° |
| 2026-04-26 22:57 | 55.84819 | -4.07091 | 15320 ft | 345 kts | 259° |
| 2026-04-26 22:57 | 55.84163 | -4.11193 | 16118 ft | 348 kts | 241° |
| 2026-04-26 22:58 | 55.82589 | -4.14445 | 16924 ft | 351 kts | 219° |
| 2026-04-26 22:58 | 55.80681 | -4.17173 | 17693 ft | 355 kts | 223° |
| 2026-04-26 22:58 | 55.78879 | -4.20244 | 18273 ft | 363 kts | 226° |
| 2026-04-26 22:58 | 55.76886 | -4.23099 | 18302 ft | 377 kts | 215° |
| 2026-04-26 22:59 | 55.74615 | -4.25662 | 18302 ft | 396 kts | 214° |
| 2026-04-26 22:59 | 55.72253 | -4.28355 | 18302 ft | 411 kts | 215° |
| 2026-04-26 22:59 | 55.69840 | -4.31216 | 18307 ft | 422 kts | 216° |
| 2026-04-26 22:59 | 55.67416 | -4.34181 | 18293 ft | 424 kts | 217° |
| 2026-04-26 23:00 | 55.65010 | -4.37160 | 18289 ft | 420 kts | 217° |
| 2026-04-26 23:00 | 55.62627 | -4.40119 | 18315 ft | 417 kts | 217° |
| 2026-04-26 23:00 | 55.60247 | -4.43068 | 18308 ft | 416 kts | 217° |
| 2026-04-26 23:00 | 55.57876 | -4.45995 | 18315 ft | 417 kts | 216° |
| 2026-04-26 23:01 | 55.55496 | -4.48925 | 18318 ft | 418 kts | 216° |
| 2026-04-26 23:01 | 55.53101 | -4.51864 | 18323 ft | 419 kts | 216° |
| 2026-04-26 23:01 | 55.50697 | -4.54808 | 18320 ft | 420 kts | 216° |
| 2026-04-26 23:01 | 55.48290 | -4.57751 | 18320 ft | 421 kts | 216° |
| 2026-04-26 23:02 | 55.45885 | -4.60687 | 18322 ft | 422 kts | 216° |
| 2026-04-26 23:02 | 55.43476 | -4.63622 | 18316 ft | 422 kts | 216° |
| 2026-04-26 23:02 | 55.41060 | -4.66562 | 18316 ft | 422 kts | 216° |
| 2026-04-26 23:02 | 55.38678 | -4.69458 | 18317 ft | 421 kts | 216° |
| 2026-04-26 23:03 | 55.36323 | -4.72315 | 18191 ft | 397 kts | 216° |
| 2026-04-26 23:03 | 55.34094 | -4.75013 | 18042 ft | 381 kts | 216° |
| 2026-04-26 23:03 | 55.31925 | -4.77634 | 17410 ft | 378 kts | 215° |
| 2026-04-26 23:03 | 55.29686 | -4.79991 | 16901 ft | 373 kts | 208° |
| 2026-04-26 23:04 | 55.27367 | -4.82016 | 16353 ft | 370 kts | 207° |
| 2026-04-26 23:04 | 55.25066 | -4.83964 | 15818 ft | 366 kts | 207° |
| 2026-04-26 23:04 | 55.22789 | -4.85923 | 15297 ft | 363 kts | 207° |
| 2026-04-26 23:04 | 55.20544 | -4.87883 | 14767 ft | 360 kts | 207° |
| 2026-04-26 23:05 | 55.18310 | -4.89846 | 14256 ft | 357 kts | 207° |
| 2026-04-26 23:05 | 55.16085 | -4.91786 | 13600 ft | 357 kts | 206° |
| 2026-04-26 23:05 | 55.13873 | -4.93712 | 13042 ft | 354 kts | 208° |
| 2026-04-26 23:05 | 55.11838 | -4.96070 | 12513 ft | 351 kts | 219° |
| 2026-04-26 23:06 | 55.10084 | -4.98996 | 12008 ft | 347 kts | 228° |
| 2026-04-26 23:06 | 55.08644 | -5.02370 | 11499 ft | 344 kts | 236° |
| 2026-04-26 23:06 | 55.07329 | -5.05835 | 11100 ft | 338 kts | 236° |
| 2026-04-26 23:06 | 55.06067 | -5.09197 | 10972 ft | 325 kts | 236° |
| 2026-04-26 23:07 | 55.04854 | -5.12425 | 10829 ft | 313 kts | 236° |
| 2026-04-26 23:07 | 55.03674 | -5.15550 | 10705 ft | 302 kts | 236° |
| 2026-04-26 23:07 | 55.02549 | -5.18515 | 10578 ft | 292 kts | 236° |
| 2026-04-26 23:07 | 55.01443 | -5.21419 | 10457 ft | 283 kts | 236° |
| 2026-04-26 23:08 | 55.00372 | -5.24225 | 10348 ft | 274 kts | 236° |
| 2026-04-26 23:08 | 54.99330 | -5.26949 | 10102 ft | 270 kts | 236° |
| 2026-04-26 23:08 | 54.98288 | -5.29667 | 9806 ft | 268 kts | 236° |
| 2026-04-26 23:08 | 54.97260 | -5.32345 | 9524 ft | 266 kts | 236° |
| 2026-04-26 23:09 | 54.96235 | -5.35011 | 9235 ft | 264 kts | 236° |
| 2026-04-26 23:09 | 54.95217 | -5.37656 | 8952 ft | 262 kts | 236° |
| 2026-04-26 23:09 | 54.94205 | -5.40282 | 8660 ft | 260 kts | 236° |
| 2026-04-26 23:09 | 54.93199 | -5.42891 | 8380 ft | 259 kts | 236° |
| 2026-04-26 23:10 | 54.92197 | -5.45485 | 8108 ft | 257 kts | 236° |
| 2026-04-26 23:10 | 54.91201 | -5.48062 | 7830 ft | 256 kts | 236° |
| 2026-04-26 23:10 | 54.90208 | -5.50627 | 7550 ft | 255 kts | 236° |
| 2026-04-26 23:10 | 54.89221 | -5.53175 | 7280 ft | 254 kts | 236° |
| 2026-04-26 23:11 | 54.88235 | -5.55719 | 6995 ft | 253 kts | 236° |
| 2026-04-26 23:11 | 54.87250 | -5.58256 | 6655 ft | 255 kts | 236° |
| 2026-04-26 23:11 | 54.86238 | -5.60861 | 6160 ft | 262 kts | 236° |
| 2026-04-26 23:11 | 54.85214 | -5.63493 | 5813 ft | 263 kts | 235° |
| 2026-04-26 23:12 | 54.84191 | -5.66120 | 5506 ft | 262 kts | 235° |
| 2026-04-26 23:12 | 54.83172 | -5.68737 | 5212 ft | 261 kts | 235° |
| 2026-04-26 23:12 | 54.82155 | -5.71343 | 4911 ft | 260 kts | 235° |
| 2026-04-26 23:12 | 54.81165 | -5.73879 | 4764 ft | 254 kts | 235° |
| 2026-04-26 23:13 | 54.80176 | -5.76408 | 4626 ft | 246 kts | 235° |
| 2026-04-26 23:13 | 54.79239 | -5.78803 | 4510 ft | 239 kts | 235° |
| 2026-04-26 23:13 | 54.78323 | -5.81143 | 4408 ft | 231 kts | 235° |
| 2026-04-26 23:13 | 54.77433 | -5.83414 | 4312 ft | 223 kts | 235° |
| 2026-04-26 23:14 | 54.76574 | -5.85606 | 4142 ft | 219 kts | 235° |
| 2026-04-26 23:14 | 54.75722 | -5.87776 | 3946 ft | 217 kts | 235° |
| 2026-04-26 23:14 | 54.74874 | -5.89932 | 3715 ft | 216 kts | 234° |
| 2026-04-26 23:14 | 54.74029 | -5.92077 | 3482 ft | 215 kts | 234° |
| 2026-04-26 23:15 | 54.73198 | -5.94220 | 3248 ft | 214 kts | 238° |
| 2026-04-26 23:15 | 54.72508 | -5.96495 | 3059 ft | 211 kts | 244° |
| 2026-04-26 23:15 | 54.71890 | -5.98796 | 2972 ft | 210 kts | 244° |
| 2026-04-26 23:15 | 54.71293 | -6.01019 | 2726 ft | 197 kts | 244° |
| 2026-04-26 23:16 | 54.70730 | -6.03102 | 2509 ft | 186 kts | 244° |
| 2026-04-26 23:16 | 54.70190 | -6.05099 | 2263 ft | 179 kts | 244° |
| 2026-04-26 23:16 | 54.69676 | -6.07002 | 2014 ft | 170 kts | 244° |
| 2026-04-26 23:16 | 54.69188 | -6.08806 | 1791 ft | 161 kts | 244° |
| 2026-04-26 23:17 | 54.68739 | -6.10472 | 1586 ft | 146 kts | 244° |
| 2026-04-26 23:17 | 54.68318 | -6.12032 | 1372 ft | 142 kts | 244° |
| 2026-04-26 23:17 | 54.67897 | -6.13592 | 1140 ft | 144 kts | 245° |
| 2026-04-26 23:17 | 54.67476 | -6.15154 | 915 ft | 143 kts | 246° |
| 2026-04-26 23:18 | 54.67065 | -6.16682 | 745 ft | 141 kts | 246° |
| 2026-04-26 23:18 | 54.66650 | -6.18223 | 526 ft | 141 kts | 246° |
| 2026-04-26 23:18 | 54.66237 | -6.19761 | 309 ft | 138 kts | 246° |
| 2026-04-26 23:18 | 54.65861 | -6.21172 | 271 ft | 113 kts | 245° |
| 2026-04-26 23:19 | 54.65622 | -6.22050 | 271 ft | 51 kts | 245° |
| 2026-04-26 23:19 | 54.65519 | -6.22433 | 271 ft | 31 kts | 245° |
| 2026-04-26 23:19 | 54.65511 | -6.22698 | 271 ft | 23 kts | 323° |
| 2026-04-26 23:19 | 54.65659 | -6.22786 | 271 ft | 22 kts | 342° |
| 2026-04-26 23:20 | 54.65745 | -6.22663 | 271 ft | 20 kts | 89° |
| 2026-04-26 23:20 | 54.65758 | -6.22427 | 271 ft | 19 kts | 82° |
| 2026-04-26 23:20 | 54.65775 | -6.22199 | 271 ft | 19 kts | 80° |
| 2026-04-26 23:20 | 54.65821 | -6.21992 | 271 ft | 18 kts | 65° |
| 2026-04-26 23:21 | 54.65875 | -6.21799 | 271 ft | 18 kts | 64° |
| 2026-04-26 23:21 | 54.65928 | -6.21617 | 271 ft | 16 kts | 44° |
| 2026-04-26 23:21 | 54.66018 | -6.21644 | 271 ft | 9 kts | 333° |
| 2026-04-26 23:21 | 54.66050 | -6.21736 | 271 ft | 9 kts | 285° |
| 2026-04-26 23:22 | 54.66057 | -6.21782 | 275 ft | 1 kts | 285° |
| 2026-04-26 23:22 | 54.66058 | -6.21786 | 274 ft | 0 kts | 285° |